Estación Meteorológica Peña el Pijo (Robertgarden) [ 01/30/23 15:40:48 CET ]

Fecha Hora Presion(HPa) Temp (°C) Humedad % Rocio (°C) Viento ( m/s) Direccion Lluvia 1Hora(mm) Lluvia 24H(mm) LLuvia Total(mm)
2012-Jun-10 01:01:12 1014.100 17.9 31 0.5         159.54
2012-Jun-10 02:01:12 1013.800 17.7 35 1.9         159.54
2012-Jun-10 03:03:17 1013.400 17.9 35 2.1         159.54
2012-Jun-10 04:01:13 1013.100 15.0 41 1.8         159.54
2012-Jun-10 05:01:11 1013.100 14.3 45 2.5         159.54
2012-Jun-10 06:01:16 1013.300 13.8 47 2.6         159.54
2012-Jun-10 07:01:17 1013.200 13.6 46 2.1         159.54
2012-Jun-10 08:01:17 1012.400 15.9 48 4.9         159.54
2012-Jun-10 09:01:16 1012.500 20.4 36 4.7 3.1 ENE     159.54
2012-Jun-10 10:01:17 1012.400 23.6 33 6.3 1.9 W     159.54
2012-Jun-10 11:01:16 1012.200 25.6 31 7.2         159.54
2012-Jun-10 12:01:16 1012.500 26.8 30 7.8         159.54
2012-Jun-10 13:01:11 1012.100 28.6 29 8.8         159.54
2012-Jun-10 14:01:12 1011.300 30.5 27 9.2 1.4 WNW     159.54
2012-Jun-10 15:01:15 1010.900 30.8 26 8.9         159.54
2012-Jun-10 16:01:16 1010.600 31.6 26 9.6         159.54
2012-Jun-10 17:01:14 1010.100 31.2 28 10.4         159.54
2012-Jun-10 18:01:16 1010.000 30.5 29 10.4         159.54
2012-Jun-10 19:01:14 1009.600 29.5 32 11.0         159.54
2012-Jun-10 20:01:11 1009.800 27.2 37 11.2         159.54
2012-Jun-10 21:01:18 1009.700 24.4 42 10.6         159.54
2012-Jun-10 22:01:11 1009.800 23.3 44 10.3         159.54
2012-Jun-10 23:01:13 1010.500 22.4 46 10.1         159.54

Temperatura Máxima:31°    Temperatura Mínima:13°
Presión Máxima:1014.100 Hpa    Presión Mínima:1009.600 Hpa


Volver